createdAt,value
2022-11-19T00:01:27.535Z,9.12
2022-11-19T00:03:55.418Z,9.00
2022-11-19T00:06:27.933Z,8.93
2022-11-19T00:08:55.534Z,9.11
2022-11-19T00:11:45.213Z,9.16
2022-11-19T00:14:15.510Z,9.08
2022-11-19T00:16:44.018Z,9.08
2022-11-19T00:19:12.400Z,8.91
2022-11-19T00:21:39.344Z,8.95
2022-11-19T00:24:07.202Z,9.08
2022-11-19T00:26:34.166Z,9.00
2022-11-19T00:29:01.107Z,8.86
2022-11-19T00:31:28.530Z,8.95
2022-11-19T00:33:55.543Z,8.97
2022-11-19T00:36:23.457Z,8.99
2022-11-19T00:38:50.935Z,8.96
2022-11-19T00:41:17.902Z,8.84
2022-11-19T00:43:47.605Z,8.84
2022-11-19T00:46:28.793Z,8.80
2022-11-19T00:48:58.612Z,8.70
2022-11-19T00:51:30.711Z,8.76
2022-11-19T00:53:58.479Z,8.67
2022-11-19T00:56:27.450Z,8.59
2022-11-19T00:58:54.962Z,8.67
2022-11-19T01:01:24.761Z,8.57
2022-11-19T01:03:52.493Z,8.47
2022-11-19T01:06:22.167Z,8.56
2022-11-19T01:08:50.477Z,8.56
2022-11-19T01:11:24.853Z,8.56
2022-11-19T01:13:52.475Z,8.56
2022-11-19T01:16:23.864Z,8.49
2022-11-19T01:18:51.514Z,8.53
2022-11-19T01:21:22.407Z,8.40
2022-11-19T01:23:49.674Z,8.43
2022-11-19T01:26:18.274Z,8.48
2022-11-19T01:28:46.270Z,8.59
2022-11-19T01:31:20.909Z,8.45
2022-11-19T01:33:48.818Z,8.71
2022-11-19T01:36:25.302Z,8.61
2022-11-19T01:38:54.264Z,8.55
2022-11-19T01:41:28.316Z,8.57
2022-11-19T01:44:04.073Z,8.48
2022-11-19T01:46:35.102Z,8.52
2022-11-19T01:49:15.213Z,8.45
2022-11-19T01:51:49.443Z,8.68
2022-11-19T01:54:31.304Z,8.71
2022-11-19T01:57:10.417Z,8.55
2022-11-19T01:59:38.834Z,8.48
2022-11-19T02:02:06.032Z,8.53
2022-11-19T02:04:34.457Z,8.44
2022-11-19T02:07:02.259Z,8.56
2022-11-19T02:09:29.637Z,8.46
2022-11-19T02:12:08.831Z,8.49
2022-11-19T02:14:42.135Z,8.55
2022-11-19T02:17:39.781Z,8.54
2022-11-19T02:20:41.560Z,8.61
2022-11-19T02:23:29.442Z,8.80
2022-11-19T02:26:40.262Z,8.81
2022-11-19T02:29:31.754Z,8.65
2022-11-19T02:32:10.473Z,8.65
2022-11-19T02:34:55.001Z,8.67
2022-11-19T02:37:53.342Z,8.62
2022-11-19T02:40:36.609Z,8.61
2022-11-19T02:43:18.374Z,8.93
2022-11-19T02:46:05.790Z,9.10
2022-11-19T02:48:41.270Z,9.04
2022-11-19T02:51:09.330Z,9.01
2022-11-19T02:53:36.370Z,9.15
2022-11-19T02:56:17.584Z,8.96
2022-11-19T02:59:11.488Z,8.78
2022-11-19T03:02:01.357Z,8.88
2022-11-19T03:04:32.649Z,8.72
2022-11-19T03:07:12.987Z,8.78
2022-11-19T03:09:48.987Z,8.81
2022-11-19T03:12:23.497Z,8.91
2022-11-19T03:15:20.356Z,8.93
2022-11-19T03:18:39.428Z,9.25
2022-11-19T03:21:44.421Z,9.01
2022-11-19T03:24:32.365Z,8.78
2022-11-19T03:27:23.222Z,8.78
2022-11-19T03:29:54.939Z,8.82
2022-11-19T03:32:32.994Z,8.75
2022-11-19T03:35:06.193Z,8.68
2022-11-19T03:37:38.583Z,8.80
2022-11-19T03:40:09.084Z,8.77
2022-11-19T03:42:37.590Z,8.76
2022-11-19T03:45:12.963Z,8.75
2022-11-19T03:47:42.118Z,8.66
2022-11-19T03:50:48.563Z,8.81
2022-11-19T03:53:16.403Z,8.81
2022-11-19T03:56:05.023Z,8.73
2022-11-19T03:58:43.605Z,8.73
2022-11-19T04:01:11.405Z,8.78
2022-11-19T04:03:38.678Z,8.78
2022-11-19T04:06:06.541Z,8.82
2022-11-19T04:08:33.496Z,8.70
2022-11-19T04:13:26.232Z,8.76
2022-11-19T04:15:53.132Z,8.84
2022-11-19T04:18:20.098Z,8.83
2022-11-19T04:20:46.990Z,8.88
2022-11-19T04:23:13.922Z,8.71
2022-11-19T04:25:45.965Z,8.73
2022-11-19T04:28:13.248Z,8.79
2022-11-19T04:30:40.211Z,8.85
2022-11-19T04:33:07.115Z,8.76
2022-11-19T04:35:34.297Z,8.79
2022-11-19T04:38:01.181Z,8.95
2022-11-19T04:40:28.058Z,8.92
2022-11-19T04:42:54.926Z,9.24
2022-11-19T04:45:21.809Z,9.05
2022-11-19T04:47:48.696Z,9.12
2022-11-19T04:50:15.670Z,8.96
2022-11-19T04:52:42.553Z,9.12
2022-11-19T04:55:10.886Z,9.12
2022-11-19T04:57:37.810Z,9.12
2022-11-19T05:00:06.153Z,9.15
2022-11-19T05:02:33.393Z,9.04
2022-11-19T05:05:00.283Z,8.93
2022-11-19T05:07:27.256Z,9.02
2022-11-19T05:09:54.161Z,8.91
2022-11-19T05:12:21.131Z,8.81
2022-11-19T05:14:48.196Z,8.77
2022-11-19T05:17:15.093Z,8.77
2022-11-19T05:19:42.010Z,8.58
2022-11-19T05:22:08.921Z,8.79
2022-11-19T05:24:35.770Z,8.69
2022-11-19T05:27:03.466Z,8.91
2022-11-19T05:29:30.410Z,8.96
2022-11-19T05:31:57.302Z,8.86
2022-11-19T05:34:24.168Z,8.82
2022-11-19T05:36:51.031Z,8.96
2022-11-19T05:39:22.169Z,9.00
2022-11-19T05:41:49.803Z,8.86
2022-11-19T05:44:16.853Z,8.77
2022-11-19T05:46:43.754Z,8.76
2022-11-19T05:49:10.666Z,8.70
2022-11-19T05:51:37.734Z,8.73
2022-11-19T05:54:04.754Z,8.80
2022-11-19T05:56:31.674Z,9.00
2022-11-19T05:58:58.652Z,9.04
2022-11-19T06:01:27.156Z,8.98
2022-11-19T06:03:55.852Z,8.85
2022-11-19T06:06:23.141Z,8.84
2022-11-19T06:08:50.122Z,8.70
2022-11-19T06:11:35.855Z,8.56
2022-11-19T06:14:02.970Z,8.54
2022-11-19T06:16:29.903Z,8.56
2022-11-19T06:18:56.787Z,8.54
2022-11-19T06:21:23.721Z,8.47
2022-11-19T06:23:50.614Z,8.55
2022-11-19T06:26:26.613Z,8.62
2022-11-19T06:28:54.203Z,8.57
2022-11-19T06:31:22.158Z,8.63
2022-11-19T06:33:49.477Z,8.69
2022-11-19T06:36:16.732Z,8.69
2022-11-19T06:38:43.658Z,8.70
2022-11-19T06:41:10.960Z,8.70
2022-11-19T06:43:37.857Z,8.70
2022-11-19T06:46:04.864Z,8.77
2022-11-19T06:48:31.851Z,8.76
2022-11-19T06:50:58.782Z,8.80
2022-11-19T06:53:25.713Z,8.70
2022-11-19T06:56:01.557Z,8.67
2022-11-19T06:58:29.454Z,8.55
2022-11-19T07:00:56.932Z,8.90
2022-11-19T07:03:24.406Z,8.77
2022-11-19T07:05:58.271Z,8.86
2022-11-19T07:08:25.462Z,9.06
2022-11-19T07:10:53.800Z,8.88
2022-11-19T07:13:20.806Z,8.84
2022-11-19T07:15:47.826Z,8.76
2022-11-19T07:18:14.888Z,8.79
2022-11-19T07:20:41.977Z,8.85
2022-11-19T07:23:12.601Z,9.00
2022-11-19T07:25:39.551Z,8.88
2022-11-19T07:28:06.511Z,8.83
2022-11-19T07:30:33.403Z,9.05
2022-11-19T07:33:00.316Z,9.07
2022-11-19T07:35:27.260Z,9.03
2022-11-19T07:37:54.211Z,9.10
2022-11-19T07:40:21.084Z,8.96
2022-11-19T07:42:50.808Z,8.99
2022-11-19T07:45:22.629Z,8.98
2022-11-19T07:47:49.917Z,9.04
2022-11-19T07:50:17.689Z,8.98
2022-11-19T07:52:45.062Z,8.92
2022-11-19T07:55:12.356Z,9.01
2022-11-19T07:57:39.287Z,8.96
2022-11-19T08:00:07.776Z,8.92
2022-11-19T08:02:36.177Z,8.79
2022-11-19T08:05:03.178Z,9.08
2022-11-19T08:07:31.442Z,9.03
2022-11-19T08:09:58.456Z,8.90
2022-11-19T08:12:25.337Z,8.99
2022-11-19T08:14:52.298Z,9.03
2022-11-19T08:17:37.585Z,9.16
2022-11-19T08:20:05.229Z,9.01
2022-11-19T08:22:32.173Z,8.93
2022-11-19T08:25:00.185Z,9.14
2022-11-19T08:27:27.197Z,9.04
2022-11-19T08:29:54.171Z,9.17
2022-11-19T08:32:21.256Z,9.21
2022-11-19T08:34:48.885Z,9.25
2022-11-19T08:37:15.959Z,9.22
2022-11-19T08:39:42.948Z,9.10
2022-11-19T08:42:28.629Z,9.15
2022-11-19T08:44:55.818Z,9.15
2022-11-19T08:47:22.766Z,9.01
2022-11-19T08:49:49.689Z,9.09
2022-11-19T08:52:16.594Z,9.00
2022-11-19T08:54:43.509Z,9.01
2022-11-19T08:57:10.419Z,9.22
2022-11-19T08:59:37.326Z,9.23
2022-11-19T09:02:04.279Z,9.01
2022-11-19T09:04:31.343Z,9.09
2022-11-19T09:06:58.366Z,8.99
2022-11-19T09:09:25.475Z,9.11
2022-11-19T09:11:52.476Z,8.97
2022-11-19T09:14:19.826Z,9.11
2022-11-19T09:16:46.881Z,9.20
2022-11-19T09:19:13.782Z,9.09
2022-11-19T09:21:40.656Z,9.13
2022-11-19T09:24:07.833Z,9.32
2022-11-19T09:26:34.685Z,9.09
2022-11-19T09:29:01.624Z,9.08
2022-11-19T09:31:28.552Z,9.00
2022-11-19T09:33:55.653Z,9.07
2022-11-19T09:36:22.605Z,9.09
2022-11-19T09:38:49.553Z,9.02
2022-11-19T09:41:43.747Z,9.01
2022-11-19T09:44:35.512Z,8.92
2022-11-19T09:47:17.476Z,8.83
2022-11-19T09:50:12.325Z,8.81
2022-11-19T09:52:51.925Z,8.82
2022-11-19T09:55:33.770Z,8.87
2022-11-19T09:58:04.462Z,9.04
2022-11-19T10:00:32.793Z,8.99
2022-11-19T10:03:05.321Z,9.15
2022-11-19T10:05:50.168Z,9.13
2022-11-19T10:08:47.043Z,9.03
2022-11-19T10:11:39.987Z,8.98
2022-11-19T10:14:12.733Z,9.02
2022-11-19T10:16:56.907Z,8.99
2022-11-19T10:19:36.765Z,8.88
2022-11-19T10:22:23.963Z,9.08
2022-11-19T10:25:17.287Z,9.35
2022-11-19T10:27:51.552Z,9.48
2022-11-19T10:30:23.137Z,9.56
2022-11-19T10:33:13.496Z,9.37
2022-11-19T10:35:48.578Z,9.31
2022-11-19T10:38:51.190Z,9.22
2022-11-19T10:42:00.101Z,9.20
2022-11-19T10:44:51.762Z,9.28
2022-11-19T10:47:33.209Z,9.26
2022-11-19T10:50:00.222Z,9.23
2022-11-19T10:52:40.317Z,9.13
2022-11-19T10:55:23.692Z,9.09
2022-11-19T10:58:07.369Z,9.12
2022-11-19T11:00:36.541Z,9.14
2022-11-19T11:03:05.214Z,9.25
2022-11-19T11:06:05.110Z,9.27
2022-11-19T11:08:52.878Z,9.19
2022-11-19T11:11:58.734Z,9.18
2022-11-19T11:14:44.619Z,9.26
2022-11-19T11:17:22.739Z,9.19
2022-11-19T11:20:15.987Z,9.24
2022-11-19T11:22:46.073Z,9.28
2022-11-19T11:25:26.063Z,9.40
2022-11-19T11:28:17.930Z,9.48
2022-11-19T11:31:10.397Z,9.11
2022-11-19T11:33:41.930Z,7.84
2022-11-19T11:36:16.649Z,7.33
2022-11-19T11:38:54.921Z,6.92
2022-11-19T11:42:04.755Z,6.54
2022-11-19T11:44:32.726Z,6.45
2022-11-19T11:47:03.168Z,6.20
2022-11-19T11:49:43.447Z,6.12
2022-11-19T11:52:21.299Z,6.03
2022-11-19T11:55:06.530Z,5.96
2022-11-19T11:57:37.174Z,5.79
2022-11-19T12:00:34.146Z,5.86
2022-11-19T12:03:03.425Z,5.70
2022-11-19T12:05:54.283Z,5.58
2022-11-19T12:08:58.075Z,5.61
2022-11-19T12:11:58.207Z,5.47
2022-11-19T12:14:57.289Z,5.49
2022-11-19T12:17:48.829Z,5.50
2022-11-19T12:20:30.660Z,5.42
2022-11-19T12:23:09.555Z,5.36
2022-11-19T12:26:13.918Z,5.35
2022-11-19T12:29:26.344Z,5.52
2022-11-19T12:32:30.582Z,5.42
2022-11-19T12:35:12.904Z,5.57
2022-11-19T12:37:45.417Z,5.40
2022-11-19T12:40:57.750Z,5.48
2022-11-19T12:43:43.432Z,5.51
2022-11-19T12:46:53.753Z,5.55
2022-11-19T12:49:54.967Z,5.38
2022-11-19T12:53:07.105Z,5.19
2022-11-19T12:55:51.190Z,5.17
2022-11-19T12:58:59.468Z,5.27
2022-11-19T13:01:33.985Z,5.22
2022-11-19T13:04:23.832Z,5.16
2022-11-19T13:06:57.515Z,5.19
2022-11-19T13:09:45.462Z,5.19
2022-11-19T13:12:54.681Z,5.09
2022-11-19T13:15:26.798Z,5.13
2022-11-19T13:17:56.913Z,5.26
2022-11-19T13:20:52.521Z,5.21
2022-11-19T13:23:34.201Z,5.33
2022-11-19T13:26:09.835Z,5.27
2022-11-19T13:28:46.780Z,5.17
2022-11-19T13:31:43.358Z,5.22
2022-11-19T13:34:27.068Z,5.21
2022-11-19T13:37:31.244Z,5.07
2022-11-19T13:40:06.925Z,5.00
2022-11-19T13:43:17.248Z,4.87
2022-11-19T13:45:42.512Z,4.82
2022-11-19T13:48:29.849Z,4.78
2022-11-19T13:51:01.270Z,4.72
2022-11-19T13:53:44.551Z,4.67
2022-11-19T13:56:15.516Z,4.66
2022-11-19T13:58:53.177Z,4.60
2022-11-19T14:01:26.322Z,4.75
2022-11-19T14:04:11.428Z,4.80
2022-11-19T14:07:30.809Z,4.82
2022-11-19T14:10:27.239Z,4.88
2022-11-19T14:13:21.554Z,4.72
2022-11-19T14:16:06.744Z,4.79
2022-11-19T14:18:59.550Z,4.88
2022-11-19T14:21:44.605Z,4.91
2022-11-19T14:24:45.079Z,4.97
2022-11-19T14:27:27.394Z,4.87
2022-11-19T14:30:16.735Z,4.80
2022-11-19T14:32:52.819Z,4.82
2022-11-19T14:35:25.779Z,4.83
2022-11-19T14:38:35.530Z,4.73
2022-11-19T14:41:14.245Z,4.63
2022-11-19T14:44:10.777Z,4.71
2022-11-19T14:46:41.150Z,4.64
2022-11-19T14:49:31.240Z,4.58
2022-11-19T14:51:59.166Z,4.52
2022-11-19T14:54:43.805Z,4.66
2022-11-19T14:57:41.917Z,4.52
2022-11-19T15:00:15.207Z,4.46
2022-11-19T15:02:48.911Z,4.49
2022-11-19T15:05:28.062Z,4.25
2022-11-19T15:08:16.668Z,4.30
2022-11-19T15:11:09.954Z,4.34
2022-11-19T15:14:28.202Z,4.24
2022-11-19T15:16:58.303Z,4.18
2022-11-19T15:19:50.308Z,4.01
2022-11-19T15:22:51.178Z,4.00
2022-11-19T15:25:45.607Z,3.99
2022-11-19T15:28:53.843Z,4.00
2022-11-19T15:32:16.706Z,4.04
2022-11-19T15:35:34.352Z,4.01
2022-11-19T15:38:19.699Z,4.00
2022-11-19T15:40:50.227Z,3.94
2022-11-19T15:43:36.504Z,3.90
2022-11-19T15:46:07.745Z,3.98
2022-11-19T15:49:10.197Z,3.96
2022-11-19T15:52:05.478Z,4.04
2022-11-19T15:54:35.080Z,4.05
2022-11-19T15:57:27.285Z,4.21
2022-11-19T16:00:01.880Z,4.44
2022-11-19T16:02:41.176Z,4.32
2022-11-19T16:05:30.613Z,4.33
2022-11-19T16:08:04.896Z,4.34
2022-11-19T16:10:35.761Z,4.30
2022-11-19T16:13:44.757Z,4.29
2022-11-19T16:16:46.864Z,4.32
2022-11-19T16:19:15.778Z,4.44
2022-11-19T16:21:46.687Z,4.26
2022-11-19T16:24:35.929Z,4.43
2022-11-19T16:27:04.751Z,4.46
2022-11-19T16:29:39.383Z,4.23
2022-11-19T16:32:07.530Z,4.26
2022-11-19T16:34:37.026Z,4.20
2022-11-19T16:37:04.201Z,4.26
2022-11-19T16:39:33.887Z,4.38
2022-11-19T16:42:17.352Z,4.24
2022-11-19T16:44:56.138Z,4.17
2022-11-19T16:47:30.646Z,4.47
2022-11-19T16:50:32.563Z,4.15
2022-11-19T16:53:02.326Z,4.24
2022-11-19T16:55:34.209Z,4.21
2022-11-19T16:58:12.776Z,4.31
2022-11-19T17:00:42.719Z,4.18
2022-11-19T17:03:20.620Z,4.34
2022-11-19T17:05:50.945Z,4.30
2022-11-19T17:08:37.927Z,4.24
2022-11-19T17:12:01.602Z,4.31
2022-11-19T17:14:34.065Z,4.34
2022-11-19T17:17:02.517Z,4.32
2022-11-19T17:19:35.164Z,4.37
2022-11-19T17:22:18.079Z,4.23
2022-11-19T17:24:46.346Z,4.23
2022-11-19T17:27:38.084Z,4.16
2022-11-19T17:30:19.298Z,4.34
2022-11-19T17:32:50.689Z,4.25
2022-11-19T17:35:41.188Z,4.17
2022-11-19T17:38:13.170Z,4.18
2022-11-19T17:41:01.579Z,4.24
2022-11-19T17:43:56.248Z,4.08
2022-11-19T17:46:26.207Z,4.11
2022-11-19T17:48:53.909Z,4.21
2022-11-19T17:51:23.626Z,4.12
2022-11-19T17:53:52.213Z,4.01
2022-11-19T17:56:26.602Z,4.07
2022-11-19T17:58:54.696Z,4.04
2022-11-19T18:01:22.739Z,4.03
2022-11-19T18:03:49.719Z,4.04
2022-11-19T18:06:17.946Z,3.99
2022-11-19T18:08:45.515Z,3.86
2022-11-19T18:11:22.032Z,3.93
2022-11-19T18:13:52.624Z,4.07
2022-11-19T18:16:23.659Z,4.04
2022-11-19T18:18:51.019Z,4.01
2022-11-19T18:21:21.296Z,3.91
2022-11-19T18:23:50.581Z,3.94
2022-11-19T18:26:22.415Z,3.84
2022-11-19T18:28:51.529Z,3.80
2022-11-19T18:31:26.623Z,3.94
2022-11-19T18:33:55.844Z,3.86
2022-11-19T18:36:24.937Z,3.78
2022-11-19T18:38:52.866Z,3.86
2022-11-19T18:41:19.880Z,3.86
2022-11-19T18:44:05.706Z,3.77
2022-11-19T18:46:32.653Z,3.91
2022-11-19T18:48:59.819Z,3.94
2022-11-19T18:51:30.610Z,3.99
2022-11-19T18:53:57.795Z,3.96
2022-11-19T18:56:25.016Z,3.89
2022-11-19T18:58:52.325Z,3.65
2022-11-19T19:01:19.765Z,3.76
2022-11-19T19:03:47.378Z,3.80
2022-11-19T19:06:15.575Z,3.77
2022-11-19T19:08:42.585Z,3.96
2022-11-19T19:11:27.922Z,3.86
2022-11-19T19:13:54.878Z,3.72
2022-11-19T19:16:22.806Z,3.75
2022-11-19T19:18:49.788Z,3.82
2022-11-19T19:21:20.113Z,3.84
2022-11-19T19:23:47.917Z,3.97
2022-11-19T19:26:17.667Z,3.84
2022-11-19T19:28:53.364Z,3.87
2022-11-19T19:31:22.194Z,3.82
2022-11-19T19:33:49.489Z,3.94
2022-11-19T19:36:18.027Z,3.92
2022-11-19T19:38:45.738Z,3.89
2022-11-19T19:41:21.126Z,3.84
2022-11-19T19:43:49.537Z,3.90
2022-11-19T19:46:18.995Z,3.92
2022-11-19T19:48:51.809Z,3.90
2022-11-19T19:51:20.860Z,4.02
2022-11-19T19:53:49.300Z,4.14
2022-11-19T19:56:20.748Z,4.10
2022-11-19T19:58:49.322Z,3.92
2022-11-19T20:01:36.665Z,3.92
2022-11-19T20:04:09.075Z,3.91
2022-11-19T20:06:41.429Z,4.05
2022-11-19T20:09:09.493Z,4.01
2022-11-19T20:11:37.272Z,3.92
2022-11-19T20:14:04.771Z,3.84
2022-11-19T20:16:33.347Z,3.84
2022-11-19T20:19:03.386Z,3.93
2022-11-19T20:21:34.032Z,3.98
2022-11-19T20:24:01.214Z,3.85
2022-11-19T20:26:30.499Z,3.91
2022-11-19T20:29:00.879Z,3.91
2022-11-19T20:31:30.898Z,4.15
2022-11-19T20:34:00.792Z,4.01
2022-11-19T20:36:30.892Z,4.07
2022-11-19T20:38:58.911Z,3.83
2022-11-19T20:41:46.204Z,3.92
2022-11-19T20:44:21.828Z,3.83
2022-11-19T20:47:02.336Z,3.84
2022-11-19T20:49:32.892Z,3.81
2022-11-19T20:52:00.395Z,3.88
2022-11-19T20:54:28.654Z,3.85
2022-11-19T20:56:57.361Z,3.98
2022-11-19T20:59:26.239Z,3.82
2022-11-19T21:01:55.588Z,3.74
2022-11-19T21:04:24.928Z,3.63
2022-11-19T21:06:53.768Z,3.73
2022-11-19T21:09:21.544Z,3.75
2022-11-19T21:11:48.786Z,3.81
2022-11-19T21:14:15.694Z,3.96
2022-11-19T21:16:42.788Z,3.90
2022-11-19T21:19:10.724Z,3.93
2022-11-19T21:21:37.998Z,3.80
2022-11-19T21:24:05.507Z,3.95
2022-11-19T21:26:32.440Z,3.88
2022-11-19T21:29:00.322Z,3.95
2022-11-19T21:31:43.954Z,4.29
2022-11-19T21:34:17.879Z,4.19
2022-11-19T21:36:46.939Z,4.17
2022-11-19T21:39:16.321Z,4.20
2022-11-19T21:41:43.808Z,4.16
2022-11-19T21:44:13.282Z,4.12
2022-11-19T21:46:43.576Z,4.32
2022-11-19T21:49:10.487Z,4.15
2022-11-19T21:51:37.427Z,4.11
2022-11-19T21:54:04.532Z,4.09
2022-11-19T21:56:37.083Z,4.07
2022-11-19T21:59:07.203Z,3.89
2022-11-19T22:01:34.811Z,3.96
2022-11-19T22:04:01.978Z,3.88
2022-11-19T22:06:30.065Z,3.94
2022-11-19T22:08:56.996Z,3.93
2022-11-19T22:11:29.662Z,4.13
2022-11-19T22:14:05.532Z,4.11
2022-11-19T22:16:38.840Z,4.00
2022-11-19T22:19:06.342Z,3.90
2022-11-19T22:21:34.606Z,3.96
2022-11-19T22:24:01.659Z,3.87
2022-11-19T22:26:28.590Z,3.79
2022-11-19T22:28:56.094Z,3.90
2022-11-19T22:31:24.885Z,3.83
2022-11-19T22:33:53.795Z,3.74
2022-11-19T22:36:22.551Z,3.84
2022-11-19T22:38:50.985Z,3.68
2022-11-19T22:41:22.134Z,3.78
2022-11-19T22:43:50.209Z,3.78
2022-11-19T22:46:18.942Z,3.85
2022-11-19T22:48:45.814Z,3.70
2022-11-19T22:51:22.768Z,3.93
2022-11-19T22:53:51.666Z,3.79
2022-11-19T22:56:23.218Z,3.86
2022-11-19T22:58:50.628Z,3.87
2022-11-19T23:01:31.454Z,3.79
2022-11-19T23:04:05.765Z,3.93
2022-11-19T23:06:35.446Z,3.99
2022-11-19T23:09:04.316Z,3.92
2022-11-19T23:11:50.134Z,3.75
2022-11-19T23:14:18.777Z,3.92
2022-11-19T23:16:46.018Z,3.86
2022-11-19T23:19:14.800Z,3.98
2022-11-19T23:21:41.731Z,3.92
2022-11-19T23:24:10.055Z,4.09
2022-11-19T23:26:38.022Z,4.12
2022-11-19T23:29:06.596Z,4.17
2022-11-19T23:31:39.372Z,4.26
2022-11-19T23:34:06.924Z,4.43
2022-11-19T23:36:40.336Z,4.43
2022-11-19T23:39:13.648Z,4.62
2022-11-19T23:41:40.578Z,4.60
2022-11-19T23:44:07.670Z,4.45
2022-11-19T23:46:35.776Z,4.34
2022-11-19T23:49:03.634Z,4.37
2022-11-19T23:51:35.399Z,4.35
2022-11-19T23:54:02.904Z,4.32
2022-11-19T23:56:32.460Z,4.25
2022-11-19T23:59:03.643Z,4.24
